createdAt,value
2022-11-14T00:02:25.616Z,10.38
2022-11-14T00:04:51.880Z,11.05
2022-11-14T00:07:18.198Z,10.90
2022-11-14T00:09:44.469Z,11.23
2022-11-14T00:12:11.085Z,13.30
2022-11-14T00:14:37.799Z,9.80
2022-11-14T00:17:04.712Z,11.23
2022-11-14T00:19:31.128Z,12.70
2022-11-14T00:21:57.364Z,12.90
2022-11-14T00:24:23.583Z,10.43
2022-11-14T00:26:49.777Z,11.82
2022-11-14T00:29:15.993Z,9.50
2022-11-14T00:31:42.241Z,10.43
2022-11-14T00:34:08.748Z,11.98
2022-11-14T00:36:34.968Z,11.60
2022-11-14T00:39:01.274Z,12.20
2022-11-14T00:41:27.494Z,11.75
2022-11-14T00:43:53.683Z,11.23
2022-11-14T00:46:19.915Z,11.13
2022-11-14T00:48:46.239Z,12.20
2022-11-14T00:51:12.697Z,10.85
2022-11-14T00:53:38.933Z,11.93
2022-11-14T00:56:05.366Z,10.82
2022-11-14T00:58:31.944Z,10.98
2022-11-14T01:00:59.414Z,11.85
2022-11-14T01:03:25.691Z,11.25
2022-11-14T01:05:51.930Z,11.25
2022-11-14T01:08:19.023Z,11.00
2022-11-14T01:10:46.227Z,12.48
2022-11-14T01:13:12.554Z,15.73
2022-11-14T01:15:39.829Z,12.88
2022-11-14T01:18:06.036Z,12.07
2022-11-14T01:20:32.250Z,11.27
2022-11-14T01:22:58.699Z,12.35
2022-11-14T01:25:24.904Z,11.57
2022-11-14T01:27:51.115Z,12.57
2022-11-14T01:30:17.328Z,13.38
2022-11-14T01:32:43.596Z,11.90
2022-11-14T01:35:09.788Z,11.02
2022-11-14T01:37:36.002Z,12.35
2022-11-14T01:40:02.185Z,12.48
2022-11-14T01:42:28.549Z,12.23
2022-11-14T01:44:54.870Z,14.15
2022-11-14T01:47:23.102Z,11.05
2022-11-14T01:49:51.888Z,11.35
2022-11-14T01:52:20.231Z,11.40
2022-11-14T01:54:48.126Z,12.25
2022-11-14T01:57:16.332Z,9.88
2022-11-14T01:59:44.461Z,11.88
2022-11-14T02:02:13.599Z,11.13
2022-11-14T02:04:42.577Z,10.35
2022-11-14T02:07:09.460Z,8.95
2022-11-14T02:09:37.124Z,9.63
2022-11-14T02:12:04.739Z,10.65
2022-11-14T02:14:32.466Z,11.30
2022-11-14T02:17:27.422Z,8.32
2022-11-14T02:19:48.046Z,9.30
2022-11-14T02:22:14.314Z,12.35
2022-11-14T02:24:40.922Z,8.90
2022-11-14T02:27:08.439Z,11.40
2022-11-14T02:29:34.890Z,10.38
2022-11-14T02:32:01.383Z,9.30
2022-11-14T02:34:27.651Z,9.43
2022-11-14T02:36:54.081Z,10.48
2022-11-14T02:39:20.320Z,10.00
2022-11-14T02:41:46.627Z,10.48
2022-11-14T02:44:12.891Z,9.23
2022-11-14T02:46:39.112Z,8.68
2022-11-14T02:49:05.309Z,9.90
2022-11-14T02:51:31.517Z,9.02
2022-11-14T02:53:57.719Z,10.90
2022-11-14T02:56:23.918Z,8.82
2022-11-14T02:58:50.111Z,9.63
2022-11-14T03:01:21.217Z,9.48
2022-11-14T03:06:14.073Z,10.02
2022-11-14T03:08:40.260Z,11.77
2022-11-14T03:11:07.608Z,9.65
2022-11-14T03:13:34.147Z,10.75
2022-11-14T03:16:07.423Z,10.73
2022-11-14T03:18:33.627Z,9.90
2022-11-14T03:21:06.888Z,10.35
2022-11-14T03:23:33.361Z,9.75
2022-11-14T03:26:01.727Z,8.70
2022-11-14T03:28:28.380Z,10.18
2022-11-14T03:30:54.926Z,9.70
2022-11-14T03:33:21.171Z,11.30
2022-11-14T03:35:48.945Z,11.15
2022-11-14T03:38:15.130Z,10.25
2022-11-14T03:40:41.401Z,9.27
2022-11-14T03:43:07.578Z,9.68
2022-11-14T03:45:33.845Z,9.15
2022-11-14T03:48:00.037Z,10.93
2022-11-14T03:50:26.227Z,10.63
2022-11-14T03:52:52.416Z,12.32
2022-11-14T03:55:18.639Z,9.13
2022-11-14T03:57:44.818Z,8.82
2022-11-14T04:00:11.303Z,9.68
2022-11-14T04:02:37.511Z,10.20
2022-11-14T04:05:03.791Z,13.80
2022-11-14T04:07:30.051Z,11.35
2022-11-14T04:09:56.298Z,9.35
2022-11-14T04:12:22.566Z,8.55
2022-11-14T04:14:48.841Z,8.90
2022-11-14T04:17:15.058Z,9.80
2022-11-14T04:19:41.275Z,9.95
2022-11-14T04:22:07.543Z,8.27
2022-11-14T04:24:33.725Z,11.35
2022-11-14T04:26:59.960Z,11.23
2022-11-14T04:29:26.186Z,11.68
2022-11-14T04:31:52.419Z,9.40
2022-11-14T04:34:18.690Z,13.10
2022-11-14T04:36:45.040Z,8.25
2022-11-14T04:39:11.221Z,8.98
2022-11-14T04:41:37.430Z,8.43
2022-11-14T04:44:03.801Z,9.43
2022-11-14T04:46:30.227Z,12.43
2022-11-14T04:48:56.423Z,8.57
2022-11-14T04:51:22.658Z,9.35
2022-11-14T04:53:48.858Z,9.15
2022-11-14T04:56:15.068Z,9.07
2022-11-14T04:58:41.262Z,9.98
2022-11-14T05:01:08.822Z,11.25
2022-11-14T05:03:35.036Z,10.23
2022-11-14T05:06:01.460Z,9.32
2022-11-14T05:08:28.026Z,9.45
2022-11-14T05:10:54.769Z,8.60
2022-11-14T05:13:20.949Z,9.60
2022-11-14T05:15:47.466Z,9.23
2022-11-14T05:18:13.641Z,10.57
2022-11-14T05:20:39.994Z,9.32
2022-11-14T05:23:06.236Z,10.57
2022-11-14T05:25:32.452Z,9.85
2022-11-14T05:27:58.714Z,10.35
2022-11-14T05:30:24.960Z,9.60
2022-11-14T05:32:51.718Z,9.90
2022-11-14T05:35:17.941Z,8.88
2022-11-14T05:37:44.132Z,8.88
2022-11-14T05:40:10.573Z,12.40
2022-11-14T05:42:36.751Z,10.35
2022-11-14T05:45:03.025Z,10.98
2022-11-14T05:47:29.254Z,12.15
2022-11-14T05:49:55.473Z,11.48
2022-11-14T05:52:21.702Z,11.55
2022-11-14T05:54:47.933Z,12.55
2022-11-14T05:57:14.199Z,11.07
2022-11-14T05:59:40.467Z,11.43
2022-11-14T06:02:06.772Z,11.80
2022-11-14T06:04:33.059Z,11.73
2022-11-14T06:06:59.292Z,9.77
2022-11-14T06:09:25.548Z,12.50
2022-11-14T06:11:51.785Z,11.20
2022-11-14T06:14:18.036Z,12.00
2022-11-14T06:16:44.263Z,10.13
2022-11-14T06:19:10.549Z,12.27
2022-11-14T06:21:36.897Z,10.90
2022-11-14T06:24:03.222Z,10.30
2022-11-14T06:26:30.380Z,11.35
2022-11-14T06:28:57.059Z,15.15
2022-11-14T06:31:23.747Z,13.48
2022-11-14T06:33:50.011Z,11.05
2022-11-14T06:36:16.759Z,11.75
2022-11-14T06:38:43.120Z,11.18
2022-11-14T06:41:13.487Z,13.65
2022-11-14T06:43:41.213Z,11.50
2022-11-14T06:46:08.195Z,14.32
2022-11-14T06:48:34.860Z,12.80
2022-11-14T06:51:01.465Z,11.02
2022-11-14T06:53:28.370Z,10.77
2022-11-14T06:56:00.752Z,11.80
2022-11-14T06:58:28.379Z,14.82
2022-11-14T07:00:54.896Z,15.57
2022-11-14T07:03:21.326Z,16.15
2022-11-14T07:05:47.801Z,19.15
2022-11-14T07:08:18.510Z,16.20
2022-11-14T07:10:47.204Z,19.45
2022-11-14T07:13:13.466Z,18.25
2022-11-14T07:15:39.740Z,17.80
2022-11-14T07:18:05.938Z,19.15
2022-11-14T07:20:32.227Z,19.42
2022-11-14T07:22:58.458Z,19.55
2022-11-14T07:25:24.781Z,27.85
2022-11-14T07:27:50.990Z,18.27
2022-11-14T07:30:17.231Z,19.45
2022-11-14T07:32:43.510Z,18.50
2022-11-14T07:35:09.755Z,19.50
2022-11-14T07:37:36.124Z,21.83
2022-11-14T07:40:02.345Z,20.40
2022-11-14T07:42:29.729Z,21.55
2022-11-14T07:44:56.094Z,19.05
2022-11-14T07:47:22.324Z,19.10
2022-11-14T07:49:48.598Z,19.92
2022-11-14T07:52:14.795Z,18.88
2022-11-14T07:54:41.004Z,18.88
2022-11-14T07:57:07.248Z,17.83
2022-11-14T07:59:33.480Z,23.95
2022-11-14T08:01:59.688Z,23.35
2022-11-14T08:04:26.368Z,45.67
2022-11-14T08:06:52.702Z,21.40
2022-11-14T08:09:18.989Z,21.33
2022-11-14T08:11:48.250Z,22.25
2022-11-14T08:14:14.801Z,21.77
2022-11-14T08:16:41.086Z,31.55
2022-11-14T08:19:07.417Z,38.63
2022-11-14T08:21:33.697Z,22.75
2022-11-14T08:23:59.956Z,21.40
2022-11-14T08:26:28.949Z,21.45
2022-11-14T08:28:59.239Z,24.20
2022-11-14T08:31:25.449Z,19.58
2022-11-14T08:33:52.062Z,21.40
2022-11-14T08:36:18.489Z,20.05
2022-11-14T08:38:44.837Z,20.20
2022-11-14T08:41:11.349Z,22.85
2022-11-14T08:43:37.553Z,23.98
2022-11-14T08:46:04.469Z,26.10
2022-11-14T08:48:31.700Z,23.08
2022-11-14T08:51:01.778Z,23.67
2022-11-14T08:53:28.025Z,27.02
2022-11-14T08:55:54.268Z,27.80
2022-11-14T08:58:20.449Z,26.45
2022-11-14T09:00:46.720Z,24.88
2022-11-14T09:03:16.164Z,25.58
2022-11-14T09:05:42.510Z,26.88
2022-11-14T09:08:08.744Z,30.15
2022-11-14T09:10:34.955Z,29.35
2022-11-14T09:13:01.678Z,26.05
2022-11-14T09:15:28.394Z,27.92
2022-11-14T09:17:55.266Z,27.40
2022-11-14T09:20:25.850Z,28.90
2022-11-14T09:22:54.752Z,27.67
2022-11-14T09:25:21.891Z,26.95
2022-11-14T09:27:48.083Z,25.88
2022-11-14T09:30:14.554Z,27.10
2022-11-14T09:32:40.739Z,26.60
2022-11-14T09:35:07.093Z,27.17
2022-11-14T09:37:33.293Z,26.17
2022-11-14T09:39:59.497Z,32.00
2022-11-14T09:42:25.696Z,29.67
2022-11-14T09:44:56.778Z,32.35
2022-11-14T09:47:24.574Z,31.23
2022-11-14T09:49:53.298Z,33.10
2022-11-14T09:52:25.284Z,33.08
2022-11-14T09:54:54.577Z,30.50
2022-11-14T09:57:20.972Z,33.28
2022-11-14T09:59:47.749Z,30.15
2022-11-14T10:02:31.330Z,28.33
2022-11-14T10:05:03.552Z,28.80
2022-11-14T10:07:39.035Z,30.83
2022-11-14T10:10:14.072Z,33.42
2022-11-14T10:12:43.032Z,32.03
2022-11-14T10:15:20.728Z,31.65
2022-11-14T10:18:03.045Z,29.08
2022-11-14T10:20:49.534Z,31.40
2022-11-14T10:23:22.742Z,28.42
2022-11-14T10:25:54.427Z,31.20
2022-11-14T10:28:28.186Z,31.08
2022-11-14T10:31:07.570Z,29.35
2022-11-14T10:33:46.121Z,28.27
2022-11-14T10:36:21.160Z,30.38
2022-11-14T10:38:53.442Z,29.98
2022-11-14T10:41:41.834Z,30.05
2022-11-14T10:44:11.398Z,26.40
2022-11-14T10:49:13.716Z,29.02
2022-11-14T10:51:39.879Z,29.55
2022-11-14T10:54:21.152Z,31.08
2022-11-14T10:56:47.991Z,29.15
2022-11-14T10:59:14.198Z,29.83
2022-11-14T11:01:41.575Z,26.60
2022-11-14T11:04:13.950Z,30.48
2022-11-14T11:06:40.541Z,31.52
2022-11-14T11:09:26.724Z,30.38
2022-11-14T11:11:54.677Z,31.65
2022-11-14T11:14:21.244Z,33.03
2022-11-14T11:16:47.974Z,31.75
2022-11-14T11:19:25.037Z,31.38
2022-11-14T11:21:52.265Z,32.22
2022-11-14T11:24:38.804Z,186.57
2022-11-14T11:27:17.098Z,39.08
2022-11-14T11:29:43.377Z,35.20
2022-11-14T11:32:10.005Z,30.83
2022-11-14T11:34:36.239Z,35.60
2022-11-14T11:37:11.625Z,48.85
2022-11-14T11:39:42.744Z,41.00
2022-11-14T11:42:12.766Z,33.03
2022-11-14T11:44:42.892Z,36.00
2022-11-14T11:47:12.559Z,39.65
2022-11-14T11:49:53.748Z,34.40
2022-11-14T11:52:30.448Z,106.55
2022-11-14T11:55:02.622Z,36.42
2022-11-14T11:57:33.516Z,34.22
2022-11-14T12:00:04.177Z,31.20
2022-11-14T12:02:30.840Z,31.67
2022-11-14T12:04:57.617Z,31.83
2022-11-14T12:07:46.880Z,37.17
2022-11-14T12:10:15.845Z,33.92
2022-11-14T12:12:53.878Z,34.03
2022-11-14T12:15:29.377Z,31.73
2022-11-14T12:18:04.665Z,32.95
2022-11-14T12:20:49.631Z,36.58
2022-11-14T12:23:39.026Z,40.63
2022-11-14T12:26:18.094Z,48.83
2022-11-14T12:28:59.183Z,35.88
2022-11-14T12:31:31.822Z,34.53
2022-11-14T12:34:00.213Z,35.78
2022-11-14T12:36:28.752Z,35.45
2022-11-14T12:38:55.309Z,31.83
2022-11-14T12:41:25.712Z,34.95
2022-11-14T12:43:52.004Z,34.45
2022-11-14T12:46:18.288Z,33.33
2022-11-14T12:48:45.317Z,34.47
2022-11-14T12:51:31.479Z,31.35
2022-11-14T12:53:57.981Z,33.95
2022-11-14T12:56:24.187Z,37.42
2022-11-14T12:59:09.310Z,35.85
2022-11-14T13:01:35.556Z,31.10
2022-11-14T13:04:20.725Z,33.88
2022-11-14T13:07:05.584Z,31.20
2022-11-14T13:09:50.530Z,27.83
2022-11-14T13:12:41.618Z,30.27
2022-11-14T13:15:48.901Z,27.25
2022-11-14T13:18:37.571Z,32.60
2022-11-14T13:21:34.736Z,30.67
2022-11-14T13:24:01.168Z,27.95
2022-11-14T13:26:27.343Z,29.10
2022-11-14T13:28:53.806Z,29.45
2022-11-14T13:31:21.205Z,28.05
2022-11-14T13:33:51.240Z,31.50
2022-11-14T13:36:36.303Z,29.48
2022-11-14T13:39:20.581Z,29.95
2022-11-14T13:41:48.125Z,31.73
2022-11-14T13:44:36.789Z,26.92
2022-11-14T13:47:18.108Z,27.63
2022-11-14T13:49:46.669Z,28.65
2022-11-14T13:52:13.297Z,29.70
2022-11-14T13:54:45.821Z,30.02
2022-11-14T13:57:20.169Z,27.67
2022-11-14T14:00:06.985Z,29.52
2022-11-14T14:02:39.443Z,33.10
2022-11-14T14:05:14.081Z,34.05
2022-11-14T14:07:59.087Z,29.02
2022-11-14T14:10:45.579Z,29.60
2022-11-14T14:13:18.948Z,34.33
2022-11-14T14:15:58.286Z,34.58
2022-11-14T14:18:41.925Z,33.78
2022-11-14T14:21:24.769Z,33.65
2022-11-14T14:24:23.184Z,34.00
2022-11-14T14:26:55.424Z,30.17
2022-11-14T14:29:26.072Z,32.40
2022-11-14T14:31:52.229Z,32.43
2022-11-14T14:34:22.781Z,32.20
2022-11-14T14:36:53.336Z,32.83
2022-11-14T14:39:21.023Z,36.70
2022-11-14T14:41:47.906Z,32.85
2022-11-14T14:44:19.963Z,36.30
2022-11-14T14:46:46.214Z,38.50
2022-11-14T14:49:18.442Z,34.70
2022-11-14T14:51:44.721Z,35.67
2022-11-14T14:54:19.247Z,34.47
2022-11-14T14:57:02.581Z,33.50
2022-11-14T14:59:29.717Z,32.47
2022-11-14T15:01:57.486Z,33.00
2022-11-14T15:04:25.716Z,35.65
2022-11-14T15:06:52.108Z,33.60
2022-11-14T15:09:20.071Z,31.60
2022-11-14T15:11:47.955Z,30.80
2022-11-14T15:14:16.868Z,32.65
2022-11-14T15:16:44.126Z,32.63
2022-11-14T15:19:14.793Z,31.25
2022-11-14T15:21:41.398Z,30.77
2022-11-14T15:24:21.946Z,33.15
2022-11-14T15:26:52.028Z,32.05
2022-11-14T15:29:20.089Z,28.13
2022-11-14T15:31:52.572Z,35.00
2022-11-14T15:34:31.051Z,28.38
2022-11-14T15:37:19.429Z,30.75
2022-11-14T15:39:46.063Z,29.88
2022-11-14T15:42:13.742Z,28.67
2022-11-14T15:44:42.219Z,27.08
2022-11-14T15:47:23.604Z,27.92
2022-11-14T15:50:00.585Z,26.45
2022-11-14T15:52:26.863Z,26.92
2022-11-14T15:54:53.164Z,27.08
2022-11-14T15:57:19.376Z,31.90
2022-11-14T15:59:45.602Z,26.73
2022-11-14T16:02:14.486Z,26.45
2022-11-14T16:04:46.143Z,25.08
2022-11-14T16:07:14.423Z,27.70
2022-11-14T16:09:41.014Z,24.48
2022-11-14T16:12:07.317Z,23.67
2022-11-14T16:14:33.671Z,23.63
2022-11-14T16:16:59.876Z,24.65
2022-11-14T16:19:26.113Z,24.75
2022-11-14T16:21:52.355Z,23.38
2022-11-14T16:24:22.684Z,26.58
2022-11-14T16:26:49.086Z,22.70
2022-11-14T16:29:15.616Z,25.40
2022-11-14T16:31:41.890Z,24.77
2022-11-14T16:34:10.122Z,22.73
2022-11-14T16:36:36.386Z,27.15
2022-11-14T16:39:03.522Z,23.83
2022-11-14T16:41:29.724Z,24.00
2022-11-14T16:43:56.765Z,24.55
2022-11-14T16:46:23.828Z,25.13
2022-11-14T16:48:50.138Z,24.02
2022-11-14T16:51:46.284Z,23.55
2022-11-14T16:54:02.764Z,23.45
2022-11-14T16:56:31.076Z,24.40
2022-11-14T16:58:57.458Z,22.90
2022-11-14T17:01:23.713Z,22.48
2022-11-14T17:03:50.028Z,23.23
2022-11-14T17:06:16.231Z,21.98
2022-11-14T17:08:42.823Z,22.38
2022-11-14T17:11:09.985Z,21.38
2022-11-14T17:13:36.785Z,20.20
2022-11-14T17:16:03.925Z,20.08
2022-11-14T17:18:34.099Z,20.80
2022-11-14T17:21:05.665Z,19.63
2022-11-14T17:23:31.878Z,23.70
2022-11-14T17:26:05.318Z,21.20
2022-11-14T17:28:32.196Z,20.42
2022-11-14T17:30:58.688Z,20.13
2022-11-14T17:33:24.940Z,21.80
2022-11-14T17:35:51.129Z,20.98
2022-11-14T17:38:17.418Z,19.00
2022-11-14T17:40:43.664Z,20.90
2022-11-14T17:43:09.868Z,19.08
2022-11-14T17:45:40.467Z,15.93
2022-11-14T17:48:07.489Z,20.13
2022-11-14T17:50:37.707Z,19.85
2022-11-14T17:53:04.148Z,22.00
2022-11-14T17:55:30.415Z,16.58
2022-11-14T17:57:56.655Z,19.80
2022-11-14T18:00:22.983Z,17.27
2022-11-14T18:02:49.195Z,17.50
2022-11-14T18:05:15.528Z,18.13
2022-11-14T18:07:41.736Z,16.65
2022-11-14T18:10:08.195Z,19.15
2022-11-14T18:12:34.470Z,17.38
2022-11-14T18:15:00.719Z,20.70
2022-11-14T18:17:27.257Z,17.85
2022-11-14T18:19:56.013Z,18.17
2022-11-14T18:22:22.209Z,14.57
2022-11-14T18:24:48.440Z,16.00
2022-11-14T18:27:14.656Z,18.50
2022-11-14T18:29:40.872Z,19.00
2022-11-14T18:32:07.124Z,16.35
2022-11-14T18:34:33.444Z,16.02
2022-11-14T18:36:59.644Z,17.63
2022-11-14T18:39:26.475Z,16.70
2022-11-14T18:41:52.677Z,16.92
2022-11-14T18:44:20.959Z,14.90
2022-11-14T18:46:47.133Z,14.23
2022-11-14T18:49:13.334Z,17.23
2022-11-14T18:51:41.959Z,15.10
2022-11-14T18:54:12.577Z,15.75
2022-11-14T18:56:38.993Z,13.47
2022-11-14T18:59:05.303Z,14.88
2022-11-14T19:01:32.094Z,16.30
2022-11-14T19:03:59.701Z,14.98
2022-11-14T19:06:26.517Z,14.20
2022-11-14T19:08:56.131Z,16.50
2022-11-14T19:11:41.152Z,17.25
2022-11-14T19:14:07.342Z,15.93
2022-11-14T19:16:34.197Z,15.00
2022-11-14T19:19:00.891Z,16.77
2022-11-14T19:21:27.243Z,14.63
2022-11-14T19:23:57.151Z,14.15
2022-11-14T19:26:23.446Z,17.70
2022-11-14T19:28:49.690Z,17.95
2022-11-14T19:31:16.525Z,18.30
2022-11-14T19:33:42.960Z,17.50
2022-11-14T19:36:11.919Z,16.42
2022-11-14T19:38:38.177Z,14.18
2022-11-14T19:41:08.209Z,17.52
2022-11-14T19:43:34.778Z,16.85
2022-11-14T19:46:02.635Z,17.02
2022-11-14T19:48:29.182Z,16.20
2022-11-14T19:51:01.235Z,18.38
2022-11-14T19:53:27.555Z,17.17
2022-11-14T19:55:58.577Z,15.32
2022-11-14T19:58:24.788Z,17.98
2022-11-14T20:00:51.005Z,17.00
2022-11-14T20:03:17.282Z,16.80
2022-11-14T20:05:43.554Z,15.35
2022-11-14T20:08:09.819Z,18.27
2022-11-14T20:10:47.314Z,19.33
2022-11-14T20:13:14.526Z,17.55
2022-11-14T20:15:40.727Z,16.42
2022-11-14T20:18:07.039Z,17.98
2022-11-14T20:20:33.613Z,15.18
2022-11-14T20:22:59.822Z,15.13
2022-11-14T20:25:26.015Z,16.05
2022-11-14T20:27:52.330Z,16.05
2022-11-14T20:30:18.699Z,16.80
2022-11-14T20:32:44.950Z,18.70
2022-11-14T20:35:11.142Z,18.05
2022-11-14T20:37:37.444Z,15.98
2022-11-14T20:40:03.838Z,16.55
2022-11-14T20:42:30.076Z,17.40
2022-11-14T20:44:56.378Z,16.92
2022-11-14T20:47:22.681Z,17.00
2022-11-14T20:49:48.947Z,17.13
2022-11-14T20:52:15.954Z,16.83
2022-11-14T20:54:42.149Z,16.63
2022-11-14T20:57:08.344Z,16.45
2022-11-14T20:59:34.535Z,14.75
2022-11-14T21:02:00.834Z,16.02
2022-11-14T21:04:27.070Z,17.00
2022-11-14T21:06:53.338Z,18.83
2022-11-14T21:09:19.625Z,15.02
2022-11-14T21:11:45.814Z,15.93
2022-11-14T21:14:12.195Z,15.95
2022-11-14T21:16:39.395Z,18.75
2022-11-14T21:19:06.269Z,16.83
2022-11-14T21:21:36.536Z,15.65
2022-11-14T21:24:03.118Z,15.05
2022-11-14T21:26:30.573Z,16.40
2022-11-14T21:28:57.895Z,18.88
2022-11-14T21:31:25.423Z,17.00
2022-11-14T21:33:53.899Z,19.00
2022-11-14T21:36:43.719Z,15.45
2022-11-14T21:39:06.691Z,15.98
2022-11-14T21:41:33.133Z,16.77
2022-11-14T21:44:00.626Z,19.40
2022-11-14T21:46:27.291Z,20.30
2022-11-14T21:48:54.892Z,19.55
2022-11-14T21:51:22.343Z,16.98
2022-11-14T21:53:49.203Z,18.23
2022-11-14T21:56:19.758Z,14.90
2022-11-14T21:58:46.021Z,16.98
2022-11-14T22:01:37.083Z,17.45
2022-11-14T22:04:12.602Z,20.20
2022-11-14T22:06:39.427Z,15.52
2022-11-14T22:09:06.080Z,17.42
2022-11-14T22:11:32.363Z,15.88
2022-11-14T22:13:58.742Z,15.45
2022-11-14T22:16:25.085Z,14.57
2022-11-14T22:18:51.830Z,14.38
2022-11-14T22:21:18.045Z,13.25
2022-11-14T22:23:44.338Z,13.43
2022-11-14T22:26:11.486Z,15.55
2022-11-14T22:28:38.213Z,15.70
2022-11-14T22:31:09.770Z,14.90
2022-11-14T22:36:07.187Z,12.90
2022-11-14T22:38:34.387Z,14.63
2022-11-14T22:41:01.309Z,14.95
2022-11-14T22:43:29.304Z,15.60
2022-11-14T22:45:56.247Z,11.45
2022-11-14T22:48:23.171Z,14.02
2022-11-14T22:51:02.854Z,13.65
2022-11-14T22:53:30.172Z,11.90
2022-11-14T22:55:56.793Z,12.32
2022-11-14T22:58:23.459Z,14.85
2022-11-14T23:00:50.165Z,18.75
2022-11-14T23:03:20.491Z,13.93
2022-11-14T23:05:47.345Z,12.57
2022-11-14T23:08:17.196Z,14.32
2022-11-14T23:10:44.015Z,10.23
2022-11-14T23:13:10.737Z,11.93
2022-11-14T23:15:37.298Z,10.18
2022-11-14T23:18:03.972Z,12.40
2022-11-14T23:20:30.587Z,12.27
2022-11-14T23:22:56.829Z,13.35
2022-11-14T23:25:23.929Z,12.35
2022-11-14T23:27:50.202Z,14.85
2022-11-14T23:30:16.592Z,14.38
2022-11-14T23:32:42.816Z,14.27
2022-11-14T23:35:09.124Z,15.05
2022-11-14T23:37:35.337Z,12.35
2022-11-14T23:40:01.529Z,14.38
2022-11-14T23:42:27.789Z,11.57
2022-11-14T23:44:53.991Z,12.05
2022-11-14T23:47:20.235Z,11.38
2022-11-14T23:49:46.745Z,10.88
2022-11-14T23:52:13.005Z,12.07
2022-11-14T23:54:39.199Z,11.95
2022-11-14T23:57:05.389Z,12.25
2022-11-14T23:59:31.577Z,11.30
